Time;durP1;ratioP1;P1;durP2;ratioP2;P2;SDS_P1;SDS_P2;PMS_P1;PMS_P2;Temp;Humidity;BMP_temperature;BMP_pressure;BME280_temperature;BME280_humidity;BME280_pressure;Samples;Min_cycle;Max_cycle;Signal;HPM_P1;HPM_P2
2022/10/10 00:00:45;;;;;;;2.23;1.80;;;10.90;99.90;;;;;;5094690;28;20204;-55
2022/10/10 00:03:13;;;;;;;2.43;1.73;;;10.90;99.90;;;;;;5094719;28;20208;-57
2022/10/10 00:05:41;;;;;;;2.40;2.00;;;11.00;1.00;;;;;;5094469;28;20200;-57
2022/10/10 00:08:08;;;;;;;4.20;1.63;;;11.00;99.90;;;;;;5094208;28;20769;-58
2022/10/10 00:10:35;;;;;;;2.50;1.90;;;10.90;99.90;;;;;;5094367;28;20224;-58
2022/10/10 00:13:03;;;;;;;3.23;1.70;;;10.90;99.90;;;;;;5094391;28;20254;-58
2022/10/10 00:15:29;;;;;;;5.30;1.80;;;10.90;1.00;;;;;;5094518;28;20588;-57
2022/10/10 00:17:56;;;;;;;2.40;1.50;;;10.90;97.10;;;;;;5094228;28;20200;-57
2022/10/10 00:20:24;;;;;;;2.63;1.63;;;10.90;24.60;;;;;;5094495;28;20306;-58
2022/10/10 00:22:51;;;;;;;3.03;1.63;;;10.90;1.00;;;;;;5094195;28;20270;-58
2022/10/10 00:25:17;;;;;;;1.90;1.60;;;10.90;1.00;;;;;;5093769;28;20261;-57
2022/10/10 00:27:44;;;;;;;2.53;1.90;;;10.90;1.00;;;;;;5094079;28;20208;-58
2022/10/10 00:30:11;;;;;;;3.93;1.73;;;10.90;1.00;;;;;;5093814;28;20245;-57
2022/10/10 00:32:38;;;;;;;4.50;1.70;;;11.00;1.00;;;;;;5094084;28;20212;-57
2022/10/10 00:35:05;;;;;;;2.97;1.83;;;10.90;1.00;;;;;;5093778;28;20208;-57
2022/10/10 00:37:34;;;;;;;3.40;1.80;;;10.90;1.00;;;;;;5093965;28;20196;-58
2022/10/10 00:40:00;;;;;;;3.17;1.43;;;10.80;35.70;;;;;;5092300;28;20232;-57
2022/10/10 00:42:27;;;;;;;3.60;1.80;;;10.80;99.90;;;;;;5093770;28;20207;-57
2022/10/10 00:45:20;;;;;;;3.40;1.67;;;10.80;1.00;;;;;;5093590;28;20614;-55
2022/10/10 00:47:49;;;;;;;1.70;1.50;;;10.80;99.90;;;;;;5093241;28;20224;-55
2022/10/10 00:50:16;;;;;;;3.27;1.67;;;10.70;99.90;;;;;;5093495;28;20245;-57
2022/10/10 00:52:44;;;;;;;3.30;2.07;;;10.70;1.00;;;;;;5077371;28;20205;-61
2022/10/10 00:55:12;;;;;;;2.03;1.80;;;10.70;99.90;;;;;;5090684;28;20257;-61
2022/10/10 00:57:39;;;;;;;2.97;1.53;;;10.70;99.90;;;;;;5092954;28;20564;-63
2022/10/10 01:00:07;;;;;;;2.47;1.70;;;10.80;99.90;;;;;;5092826;28;20817;-61
2022/10/10 01:02:33;;;;;;;2.83;1.70;;;10.70;99.90;;;;;;5092918;28;20208;-61
2022/10/10 01:05:00;;;;;;;2.47;1.77;;;10.70;99.90;;;;;;5092319;28;20611;-60
2022/10/10 01:07:30;;;;;;;3.53;1.87;;;10.70;1.00;;;;;;5093106;28;20638;-62
2022/10/10 01:10:02;;;;;;;2.43;1.50;;;10.60;99.90;;;;;;5092572;28;20733;-62
2022/10/10 01:12:38;;;;;;;1.90;1.67;;;10.70;1.00;;;;;;5090849;28;20248;-62
2022/10/10 01:15:11;;;;;;;2.50;1.87;;;10.60;1.00;;;;;;5092909;28;20200;-61
2022/10/10 01:17:43;;;;;;;3.23;1.57;;;10.70;1.00;;;;;;5092948;28;20188;-61
2022/10/10 01:20:49;;;;;;;4.07;1.93;;;10.70;1.00;;;;;;5092102;28;20215;-58
2022/10/10 01:23:51;;;;;;;4.20;1.57;;;10.70;1.00;;;;;;5093216;28;20208;-58
2022/10/10 01:26:43;;;;;;;3.50;1.63;;;10.60;99.90;;;;;;5092596;28;20238;-57
2022/10/10 01:29:18;;;;;;;2.63;1.70;;;10.60;99.90;;;;;;5093073;28;20234;-58
2022/10/10 01:31:47;;;;;;;2.77;2.00;;;10.60;99.90;;;;;;5092851;28;20673;-58
2022/10/10 01:34:21;;;;;;;3.80;2.13;;;10.50;1.00;;;;;;5092729;28;20750;-52
2022/10/10 01:36:54;;;;;;;2.77;1.50;;;10.50;87.10;;;;;;5092876;28;20207;-59
2022/10/10 01:39:26;;;;;;;3.33;1.90;;;10.40;99.90;;;;;;5093124;28;20232;-59
2022/10/10 01:41:58;;;;;;;3.30;2.00;;;10.40;99.90;;;;;;5092816;28;20216;-58
2022/10/10 01:44:26;;;;;;;2.40;1.80;;;10.40;29.20;;;;;;5092549;28;20208;-58
2022/10/10 01:46:53;;;;;;;4.30;1.90;;;10.30;99.90;;;;;;5092350;28;20231;-59
2022/10/10 01:49:30;;;;;;;2.37;1.70;;;10.30;1.00;;;;;;5092629;28;20644;-58
2022/10/10 01:52:10;;;;;;;3.40;1.63;;;10.20;99.90;;;;;;5092423;28;20208;-58
2022/10/10 01:54:47;;;;;;;2.20;1.80;;;10.20;1.00;;;;;;5092417;28;20677;-58
2022/10/10 01:57:21;;;;;;;3.40;1.87;;;10.20;99.90;;;;;;5092093;28;20253;-59
2022/10/10 02:00:05;;;;;;;2.50;2.00;;;10.20;99.90;;;;;;5092506;28;20605;-59
2022/10/10 02:02:41;;;;;;;6.57;1.93;;;10.20;1.00;;;;;;5092216;28;20677;-59
2022/10/10 02:05:15;;;;;;;3.83;1.83;;;10.20;1.00;;;;;;5092485;28;20210;-59
2022/10/10 02:07:45;;;;;;;2.63;2.10;;;10.20;62.10;;;;;;5092188;28;20556;-58
2022/10/10 02:10:16;;;;;;;1.97;1.77;;;10.20;98.50;;;;;;5092478;28;20208;-58
2022/10/10 02:12:43;;;;;;;2.70;1.90;;;10.10;99.90;;;;;;5092265;28;20261;-59
2022/10/10 02:15:15;;;;;;;2.63;1.83;;;10.10;99.90;;;;;;5092227;28;20210;-59
2022/10/10 02:17:44;;;;;;;2.90;2.00;;;10.10;99.90;;;;;;5091940;28;20595;-57
2022/10/10 02:20:13;;;;;;;5.03;2.03;;;10.10;99.90;;;;;;5092434;28;20203;-59
2022/10/10 02:22:43;;;;;;;2.57;2.00;;;10.20;99.90;;;;;;5092165;28;20265;-59
2022/10/10 02:25:10;;;;;;;3.93;2.00;;;10.20;99.90;;;;;;5092151;28;20212;-57
2022/10/10 02:27:43;;;;;;;3.17;1.87;;;10.20;99.90;;;;;;5091787;28;20224;-59
2022/10/10 02:30:13;;;;;;;3.37;1.90;;;10.10;99.90;;;;;;5092054;28;20250;-57
2022/10/10 02:32:43;;;;;;;5.30;2.10;;;10.10;1.00;;;;;;5092230;28;20204;-59
2022/10/10 02:35:14;;;;;;;2.03;1.70;;;10.10;1.00;;;;;;5092409;28;20626;-59
2022/10/10 02:37:42;;;;;;;3.87;2.10;;;10.10;1.00;;;;;;5091816;28;20230;-59
2022/10/10 02:40:12;;;;;;;3.60;1.93;;;10.00;1.00;;;;;;5091895;28;20215;-58
2022/10/10 02:42:39;;;;;;;2.87;1.93;;;10.00;1.00;;;;;;5091712;28;20211;-59
2022/10/10 02:45:07;;;;;;;5.10;2.07;;;10.00;1.00;;;;;;5092215;28;20341;-59
2022/10/10 02:47:35;;;;;;;4.57;2.20;;;10.00;1.00;;;;;;5091742;28;20231;-59
2022/10/10 02:50:02;;;;;;;3.03;1.63;;;9.90;1.00;;;;;;5091655;28;20228;-58
2022/10/10 02:52:29;;;;;;;4.50;2.50;;;9.90;1.00;;;;;;5091842;28;20635;-56
2022/10/10 02:54:56;;;;;;;4.67;2.07;;;9.80;1.00;;;;;;5092118;28;20207;-58
2022/10/10 02:57:22;;;;;;;3.87;2.20;;;9.80;1.00;;;;;;5091549;28;20254;-58
2022/10/10 02:59:49;;;;;;;4.53;1.90;;;9.80;1.00;;;;;;5091834;28;20257;-58
2022/10/10 03:02:16;;;;;;;3.33;2.00;;;9.80;1.00;;;;;;5091579;28;20667;-57
2022/10/10 03:04:44;;;;;;;4.70;2.10;;;9.80;14.20;;;;;;5094818;28;20588;-58
2022/10/10 03:07:11;;;;;;;3.57;2.27;;;9.70;20.60;;;;;;5095479;28;20226;-58
2022/10/10 03:09:38;;;;;;;3.00;2.17;;;9.70;34.80;;;;;;5095495;28;20226;-57
2022/10/10 03:12:05;;;;;;;5.17;1.90;;;9.70;43.50;;;;;;5095426;28;20692;-58
2022/10/10 03:14:31;;;;;;;2.77;1.93;;;9.70;50.20;;;;;;5095428;28;20214;-58
2022/10/10 03:16:58;;;;;;;3.73;2.30;;;9.60;56.40;;;;;;5095414;28;20197;-57
2022/10/10 03:19:25;;;;;;;4.13;2.37;;;9.60;58.70;;;;;;5095460;28;20224;-57
2022/10/10 03:21:53;;;;;;;3.90;2.10;;;9.60;63.30;;;;;;5095261;28;20211;-58
2022/10/10 03:24:19;;;;;;;2.90;2.60;;;9.60;67.60;;;;;;5095065;28;20215;-57
2022/10/10 03:26:46;;;;;;;7.20;2.90;;;9.60;71.00;;;;;;5094833;28;20214;-58
2022/10/10 03:29:13;;;;;;;3.07;2.47;;;9.60;76.10;;;;;;5095243;28;20225;-56
2022/10/10 03:31:40;;;;;;;3.50;2.40;;;9.60;78.50;;;;;;5095264;28;20211;-58
2022/10/10 03:34:06;;;;;;;5.23;2.50;;;9.60;81.00;;;;;;5095098;28;20208;-57
2022/10/10 03:36:33;;;;;;;8.23;2.30;;;9.60;83.60;;;;;;5094885;28;20202;-57
2022/10/10 03:39:01;;;;;;;4.77;1.83;;;9.60;84.50;;;;;;5094658;28;20228;-58
2022/10/10 03:41:28;;;;;;;5.10;2.13;;;9.70;85.70;;;;;;5095295;28;20261;-58
2022/10/10 03:43:55;;;;;;;4.67;2.27;;;9.70;82.90;;;;;;5094871;28;20558;-55
2022/10/10 03:46:21;;;;;;;3.77;2.00;;;9.70;85.30;;;;;;5094815;28;20207;-58
2022/10/10 03:48:48;;;;;;;2.77;2.10;;;9.60;87.70;;;;;;5094722;28;20265;-58
2022/10/10 03:51:15;;;;;;;6.23;2.43;;;9.60;91.60;;;;;;5094898;28;20261;-58
2022/10/10 03:53:42;;;;;;;5.17;2.43;;;9.60;93.60;;;;;;5094513;28;20651;-57
2022/10/10 03:56:10;;;;;;;10.27;5.53;;;9.60;95.90;;;;;;5094688;28;20211;-58
2022/10/10 03:58:37;;;;;;;8.03;3.23;;;9.60;97.90;;;;;;5094557;28;20717;-56
2022/10/10 04:01:04;;;;;;;6.77;2.43;;;9.60;98.60;;;;;;5094738;28;20207;-57
2022/10/10 04:03:31;;;;;;;3.10;2.40;;;9.60;98.20;;;;;;5094640;28;20208;-56
2022/10/10 04:05:58;;;;;;;3.63;2.50;;;9.60;99.00;;;;;;5094537;28;20306;-59
2022/10/10 04:08:27;;;;;;;4.70;2.23;;;9.60;99.90;;;;;;5094503;28;20285;-58
2022/10/10 04:10:54;;;;;;;3.77;2.53;;;9.60;99.90;;;;;;5094614;28;20211;-56
2022/10/10 04:13:24;;;;;;;4.80;2.40;;;9.60;99.90;;;;;;5094683;28;20204;-57
2022/10/10 04:15:51;;;;;;;2.80;2.30;;;9.60;99.90;;;;;;5094460;28;20291;-57
2022/10/10 04:18:18;;;;;;;3.70;2.50;;;9.60;99.90;;;;;;5094606;28;20343;-58
2022/10/10 04:20:45;;;;;;;5.17;2.50;;;9.60;99.90;;;;;;5094476;28;20214;-58
2022/10/10 04:23:12;;;;;;;5.10;2.67;;;9.60;99.90;;;;;;5094285;28;20261;-58
2022/10/10 04:25:39;;;;;;;3.80;2.47;;;9.60;99.90;;;;;;5094156;28;20215;-57
2022/10/10 04:28:05;;;;;;;3.70;2.40;;;9.70;99.90;;;;;;5093807;28;20231;-56
2022/10/10 04:30:34;;;;;;;7.63;2.73;;;9.70;99.90;;;;;;5094417;28;20257;-57
2022/10/10 04:33:01;;;;;;;8.93;2.70;;;9.70;99.90;;;;;;5094159;28;20291;-58
2022/10/10 04:35:28;;;;;;;8.27;2.80;;;9.70;99.90;;;;;;5093968;28;20257;-57
2022/10/10 04:37:55;;;;;;;3.83;2.40;;;9.70;99.90;;;;;;5093738;28;20248;-56
2022/10/10 04:40:21;;;;;;;8.63;2.90;;;9.70;99.90;;;;;;5093687;28;20237;-56
2022/10/10 04:42:48;;;;;;;3.40;2.63;;;9.70;99.90;;;;;;5093890;28;20334;-58
2022/10/10 04:45:15;;;;;;;2.93;2.37;;;9.70;99.90;;;;;;5093915;28;20207;-57
2022/10/10 04:47:43;;;;;;;3.17;2.53;;;9.70;99.90;;;;;;5093280;28;20227;-56
2022/10/10 04:50:10;;;;;;;3.13;2.40;;;9.70;99.90;;;;;;5093442;28;20206;-54
2022/10/10 04:52:37;;;;;;;5.33;2.63;;;9.70;99.90;;;;;;5094073;28;20258;-58
2022/10/10 04:55:04;;;;;;;5.17;2.70;;;9.70;99.90;;;;;;5093896;28;20243;-58
2022/10/10 04:57:31;;;;;;;5.60;2.60;;;9.70;99.90;;;;;;5093623;28;20251;-57
2022/10/10 04:59:58;;;;;;;5.23;2.80;;;9.60;99.90;;;;;;5091834;28;20227;-57
2022/10/10 05:02:25;;;;;;;4.23;2.73;;;9.60;99.90;;;;;;5092216;28;20253;-57
2022/10/10 05:04:53;;;;;;;4.80;2.33;;;9.60;99.90;;;;;;5092753;28;20216;-55
2022/10/10 05:07:19;;;;;;;4.60;2.93;;;9.60;99.90;;;;;;5092701;28;20671;-55
2022/10/10 05:09:46;;;;;;;5.77;2.83;;;9.70;99.90;;;;;;5092290;28;20753;-56
2022/10/10 05:12:13;;;;;;;6.07;2.83;;;9.70;99.90;;;;;;5093199;28;20264;-57
2022/10/10 05:14:39;;;;;;;7.23;2.80;;;9.70;99.90;;;;;;5092625;28;20204;-54
2022/10/10 05:17:06;;;;;;;5.50;2.63;;;9.70;99.90;;;;;;5092661;28;20257;-55
2022/10/10 05:19:33;;;;;;;4.50;2.57;;;9.80;99.90;;;;;;5093707;28;20230;-56
2022/10/10 05:22:01;;;;;;;7.23;3.10;;;9.80;99.90;;;;;;5092938;28;20204;-56
2022/10/10 05:24:28;;;;;;;3.47;2.50;;;9.80;99.90;;;;;;5092282;28;20204;-61
2022/10/10 05:26:54;;;;;;;4.57;2.50;;;9.80;99.90;;;;;;5091314;28;20218;-60
2022/10/10 05:29:21;;;;;;;5.03;2.53;;;9.80;99.90;;;;;;5092137;28;20710;-58
2022/10/10 05:31:48;;;;;;;4.53;2.80;;;9.80;99.90;;;;;;5092425;28;20249;-58
2022/10/10 05:34:15;;;;;;;5.47;2.80;;;9.80;99.90;;;;;;5092744;28;20211;-57
2022/10/10 05:36:42;;;;;;;4.13;2.83;;;9.80;99.90;;;;;;5091962;28;20207;-59
2022/10/10 05:39:10;;;;;;;4.67;2.70;;;9.80;99.90;;;;;;5092167;28;20224;-60
2022/10/10 05:41:37;;;;;;;4.73;2.77;;;9.80;99.90;;;;;;5091890;28;20572;-60
2022/10/10 05:44:04;;;;;;;3.37;2.40;;;9.70;99.90;;;;;;5092262;28;20263;-61
2022/10/10 05:46:30;;;;;;;2.73;2.50;;;9.70;99.90;;;;;;5092287;28;20750;-61
2022/10/10 05:48:57;;;;;;;4.23;2.97;;;9.70;99.90;;;;;;5091757;28;20285;-60
2022/10/10 05:51:24;;;;;;;3.10;2.80;;;9.70;99.90;;;;;;5091984;28;20733;-60
2022/10/10 05:53:50;;;;;;;3.53;3.23;;;9.70;99.90;;;;;;5091648;28;20211;-60
2022/10/10 05:56:18;;;;;;;2.93;2.57;;;9.80;99.90;;;;;;5092094;28;20269;-59
2022/10/10 05:58:45;;;;;;;3.33;2.93;;;9.80;99.90;;;;;;5091346;28;20227;-61
2022/10/10 06:01:12;;;;;;;4.00;3.27;;;9.80;99.90;;;;;;5091909;28;20674;-61
2022/10/10 06:03:39;;;;;;;4.93;2.70;;;9.80;99.90;;;;;;5091685;28;20899;-62
2022/10/10 06:06:06;;;;;;;4.00;2.90;;;9.80;99.90;;;;;;5092157;28;20617;-61
2022/10/10 06:08:33;;;;;;;4.63;3.03;;;9.90;99.90;;;;;;5091453;28;20288;-63
2022/10/10 06:11:04;;;;;;;5.10;2.83;;;9.90;99.90;;;;;;5091297;28;20299;-59
2022/10/10 06:13:32;;;;;;;5.37;3.13;;;10.00;99.90;;;;;;5091638;28;20736;-57
2022/10/10 06:15:59;;;;;;;5.07;3.70;;;10.00;99.90;;;;;;5091452;28;20666;-58
2022/10/10 06:18:25;;;;;;;2.83;2.53;;;10.00;99.90;;;;;;5092096;28;20232;-59
2022/10/10 06:20:52;;;;;;;6.90;3.20;;;10.00;99.90;;;;;;5091301;28;20204;-57
2022/10/10 06:23:19;;;;;;;6.63;3.37;;;10.00;99.90;;;;;;5091602;28;20204;-59
2022/10/10 06:25:46;;;;;;;6.93;3.63;;;10.10;99.90;;;;;;5090950;28;20208;-58
2022/10/10 06:28:13;;;;;;;6.20;3.30;;;10.10;99.90;;;;;;5091666;28;20231;-55
2022/10/10 06:30:42;;;;;;;6.23;2.87;;;10.10;99.90;;;;;;5091402;28;20594;-54
2022/10/10 06:33:09;;;;;;;4.13;2.60;;;10.10;99.90;;;;;;5091625;28;20212;-57
2022/10/10 06:35:39;;;;;;;6.33;3.53;;;10.20;99.90;;;;;;5091149;28;20767;-58
2022/10/10 06:38:06;;;;;;;10.03;3.57;;;10.20;99.90;;;;;;5091694;28;20220;-61
2022/10/10 06:40:33;;;;;;;5.13;3.30;;;10.20;99.90;;;;;;5080156;28;20214;-60
2022/10/10 06:43:00;;;;;;;6.03;3.20;;;10.30;99.90;;;;;;5090175;28;20199;-61
2022/10/10 06:45:26;;;;;;;7.00;3.27;;;10.40;99.90;;;;;;5095484;28;20204;-63
2022/10/10 06:47:55;;;;;;;6.37;2.80;;;10.40;99.90;;;;;;5094525;28;20207;-62
2022/10/10 06:50:21;;;;;;;6.33;3.13;;;10.50;99.90;;;;;;5095241;28;20204;-58
2022/10/10 06:52:48;;;;;;;2.80;2.50;;;10.50;99.90;;;;;;5094211;28;20253;-58
2022/10/10 06:55:15;;;;;;;10.50;2.90;;;10.60;99.90;;;;;;5095156;28;20215;-62
2022/10/10 06:57:41;;;;;;;4.57;3.07;;;10.70;99.90;;;;;;5094483;28;20881;-59
2022/10/10 07:00:09;;;;;;;5.00;2.90;;;10.70;99.90;;;;;;5095026;28;20208;-58
2022/10/10 07:02:39;;;;;;;6.23;3.17;;;10.80;99.90;;;;;;5094614;28;20208;-58
2022/10/10 07:05:10;;;;;;;5.83;3.27;;;10.90;99.90;;;;;;5094387;28;20216;-58
2022/10/10 07:07:37;;;;;;;6.30;2.97;;;11.00;99.90;;;;;;5094586;28;20210;-58
2022/10/10 07:10:04;;;;;;;4.57;2.93;;;11.10;99.90;;;;;;5094238;28;20310;-58
2022/10/10 07:12:31;;;;;;;8.17;3.13;;;11.10;99.90;;;;;;5094314;28;20208;-58
2022/10/10 07:14:58;;;;;;;7.80;3.33;;;11.20;99.90;;;;;;5093688;28;20208;-58
2022/10/10 07:17:25;;;;;;;5.77;3.00;;;11.30;99.90;;;;;;5094309;28;20212;-58
2022/10/10 07:19:51;;;;;;;7.57;3.20;;;11.40;99.90;;;;;;5093573;28;20254;-59
2022/10/10 07:22:19;;;;;;;6.83;3.50;;;11.50;99.90;;;;;;5094336;28;20671;-58
2022/10/10 07:24:46;;;;;;;4.27;3.00;;;11.60;99.90;;;;;;5094281;28;20690;-59
2022/10/10 07:27:13;;;;;;;5.20;2.90;;;11.70;99.90;;;;;;5093551;28;20261;-59
2022/10/10 07:29:40;;;;;;;5.47;2.70;;;11.80;99.90;;;;;;5094113;28;20224;-59
2022/10/10 07:32:07;;;;;;;4.60;2.93;;;11.90;99.90;;;;;;5093589;28;20202;-59
2022/10/10 07:34:36;;;;;;;7.53;2.97;;;12.00;99.90;;;;;;5094296;28;20208;-62
2022/10/10 07:37:03;;;;;;;4.80;3.30;;;12.10;99.90;;;;;;5091783;28;20207;-59
2022/10/10 07:39:30;;;;;;;6.70;3.27;;;12.20;99.90;;;;;;5094491;28;20224;-57
2022/10/10 07:41:57;;;;;;;5.30;2.77;;;12.30;98.30;;;;;;5093596;28;20215;-56
2022/10/10 07:44:24;;;;;;;7.67;3.20;;;12.40;97.90;;;;;;5094210;28;20211;-55
2022/10/10 07:46:51;;;;;;;4.20;3.10;;;12.50;99.30;;;;;;5094056;28;20218;-60
2022/10/10 07:49:18;;;;;;;5.40;2.80;;;12.60;93.60;;;;;;5092896;28;20238;-61
2022/10/10 07:51:44;;;;;;;7.37;2.70;;;12.80;93.70;;;;;;5091719;28;20206;-57
2022/10/10 07:54:11;;;;;;;4.63;2.97;;;12.90;91.70;;;;;;5093793;28;20409;-60
2022/10/10 07:56:39;;;;;;;4.70;2.90;;;12.90;78.10;;;;;;5093824;28;20601;-59
2022/10/10 07:59:06;;;;;;;3.80;3.00;;;13.00;82.70;;;;;;5093278;28;20230;-60
2022/10/10 08:01:32;;;;;;;5.73;2.87;;;13.10;73.60;;;;;;5092981;28;20214;-60
2022/10/10 08:03:59;;;;;;;6.37;2.70;;;13.10;74.00;;;;;;5093893;28;20212;-58
2022/10/10 08:06:25;;;;;;;5.27;2.87;;;13.20;80.00;;;;;;5093796;28;20356;-59
2022/10/10 08:08:52;;;;;;;6.00;2.90;;;13.30;80.60;;;;;;5093697;28;20754;-60
2022/10/10 08:11:20;;;;;;;6.83;2.80;;;13.40;77.10;;;;;;5094575;28;20208;-60
2022/10/10 08:13:49;;;;;;;4.40;2.83;;;13.50;69.60;;;;;;5094328;28;20212;-62
2022/10/10 08:16:16;;;;;;;7.50;3.17;;;13.60;69.00;;;;;;5094960;28;20261;-62
2022/10/10 08:18:43;;;;;;;6.33;2.97;;;13.60;68.40;;;;;;5095125;28;20227;-62
2022/10/10 08:21:12;;;;;;;6.00;3.53;;;13.60;55.80;;;;;;5092969;28;20200;-59
2022/10/10 08:23:39;;;;;;;7.10;2.80;;;13.70;64.50;;;;;;5093519;28;20207;-58
2022/10/10 08:26:08;;;;;;;8.00;3.13;;;13.80;68.40;;;;;;5093078;28;20618;-61
2022/10/10 08:28:36;;;;;;;10.00;3.47;;;13.90;63.20;;;;;;5092935;28;20228;-61
2022/10/10 08:31:07;;;;;;;9.03;2.87;;;14.00;68.20;;;;;;5093317;28;20207;-61
2022/10/10 08:33:34;;;;;;;7.80;2.67;;;14.20;56.30;;;;;;5092592;28;20208;-61
2022/10/10 08:36:05;;;;;;;4.30;2.80;;;14.30;52.00;;;;;;5093049;28;20744;-60
2022/10/10 08:38:32;;;;;;;4.33;2.70;;;14.30;40.70;;;;;;5092632;28;20664;-61
2022/10/10 08:41:00;;;;;;;5.43;2.80;;;14.40;49.30;;;;;;5092655;28;20242;-64
2022/10/10 08:43:33;;;;;;;4.73;3.13;;;14.40;46.80;;;;;;5092582;28;20754;-59
2022/10/10 08:46:08;;;;;;;4.50;2.97;;;14.40;54.60;;;;;;5093153;28;20208;-58
2022/10/10 08:48:36;;;;;;;6.43;2.60;;;14.50;40.80;;;;;;5086987;28;20808;-60
2022/10/10 08:51:09;;;;;;;7.73;2.93;;;14.60;41.70;;;;;;5092210;28;20245;-60
2022/10/10 08:53:40;;;;;;;6.83;2.80;;;14.70;29.70;;;;;;5092591;28;20671;-62
2022/10/10 08:56:10;;;;;;;4.90;2.97;;;14.80;34.40;;;;;;5092670;28;20215;-62
2022/10/10 08:58:41;;;;;;;5.43;2.70;;;14.80;15.50;;;;;;5092723;28;20702;-62
2022/10/10 09:01:15;;;;;;;9.60;3.33;;;14.90;16.50;;;;;;5091104;28;20711;-62
2022/10/10 09:03:46;;;;;;;8.70;3.63;;;14.90;28.80;;;;;;5092249;28;20208;-63
2022/10/10 09:06:34;;;;;;;4.70;2.33;;;15.00;1.00;;;;;;5087367;28;20213;-63
2022/10/10 09:09:10;;;;;;;4.50;2.67;;;15.30;5.70;;;;;;5092684;28;20227;-61
2022/10/10 09:11:49;;;;;;;4.50;2.60;;;15.40;1.00;;;;;;5092033;28;20614;-60
2022/10/10 09:14:26;;;;;;;7.07;2.87;;;15.40;99.90;;;;;;5092321;28;20204;-62
2022/10/10 09:17:02;;;;;;;10.07;3.10;;;15.40;99.90;;;;;;5091539;28;20282;-62
2022/10/10 09:19:40;;;;;;;8.57;2.70;;;15.50;99.90;;;;;;5093342;28;20220;-61
2022/10/10 09:22:12;;;;;;;3.03;2.37;;;15.50;21.30;;;;;;5092244;28;20674;-62
2022/10/10 09:24:45;;;;;;;8.40;2.97;;;15.50;99.90;;;;;;5091902;28;20215;-61
2022/10/10 09:27:15;;;;;;;6.43;2.40;;;15.50;1.00;;;;;;5091601;28;20220;-62
2022/10/10 09:29:46;;;;;;;7.97;2.70;;;15.40;98.30;;;;;;5091764;28;20243;-60
2022/10/10 09:32:18;;;;;;;7.47;2.80;;;15.40;99.90;;;;;;5092018;28;20208;-59
2022/10/10 09:34:48;;;;;;;7.30;2.60;;;15.50;1.00;;;;;;5091646;28;20212;-59
2022/10/10 09:37:19;;;;;;;7.50;2.93;;;15.60;50.30;;;;;;5091626;28;20215;-59
2022/10/10 09:39:51;;;;;;;7.23;2.73;;;15.70;99.90;;;;;;5091971;28;20289;-60
2022/10/10 09:42:22;;;;;;;6.07;3.00;;;15.70;99.90;;;;;;5091847;28;20204;-60
2022/10/10 09:44:49;;;;;;;7.33;3.17;;;15.80;1.00;;;;;;5091559;28;20257;-59
2022/10/10 09:47:17;;;;;;;6.63;2.63;;;15.90;99.90;;;;;;5091577;28;20207;-55
2022/10/10 09:49:44;;;;;;;5.07;2.73;;;16.00;1.00;;;;;;5091621;28;20904;-59
2022/10/10 09:52:26;;;;;;;3.90;2.50;;;16.10;99.90;;;;;;5091601;28;20212;-58
2022/10/10 09:54:58;;;;;;;5.70;2.30;;;16.10;1.00;;;;;;5091538;28;20270;-58
2022/10/10 09:57:30;;;;;;;12.40;2.60;;;16.30;99.90;;;;;;5091492;28;20208;-62
2022/10/10 09:59:56;;;;;;;3.07;2.17;;;16.60;99.90;;;;;;5091413;28;20277;-61
2022/10/10 10:02:26;;;;;;;5.67;2.50;;;16.80;1.00;;;;;;5090607;28;20204;-61
2022/10/10 10:04:55;;;;;;;5.87;2.50;;;17.00;1.00;;;;;;5091605;28;20204;-61
2022/10/10 10:07:26;;;;;;;4.50;2.23;;;16.90;99.90;;;;;;5090983;28;20728;-63
2022/10/10 10:09:55;;;;;;;5.13;2.60;;;17.00;99.90;;;;;;5088479;28;20224;-62
2022/10/10 10:12:24;;;;;;;4.57;2.50;;;17.00;99.90;;;;;;5075948;28;20215;-63
2022/10/10 10:14:58;;;;;;;4.40;2.23;;;17.30;99.90;;;;;;5091347;28;20257;-63
2022/10/10 10:17:26;;;;;;;7.97;2.60;;;17.40;99.90;;;;;;5091000;28;20291;-57
2022/10/10 10:19:53;;;;;;;7.33;2.60;;;17.50;99.90;;;;;;5091389;28;20269;-56
2022/10/10 10:22:31;;;;;;;9.10;2.87;;;17.40;99.90;;;;;;5091493;28;20207;-63
2022/10/10 10:24:58;;;;;;;5.53;2.23;;;17.20;99.90;;;;;;5090920;28;20253;-63
2022/10/10 10:27:27;;;;;;;8.67;2.77;;;17.10;99.90;;;;;;5091028;28;20204;-63
2022/10/10 10:29:55;;;;;;;6.80;2.73;;;17.20;99.90;;;;;;5090755;28;20232;-62
2022/10/10 10:32:40;;;;;;;6.93;2.43;;;17.30;99.90;;;;;;5091044;28;20204;-62
2022/10/10 10:35:17;;;;;;;9.13;2.30;;;17.30;99.90;;;;;;5090452;28;20208;-65
2022/10/10 10:38:01;;;;;;;7.93;2.57;;;17.40;99.90;;;;;;5090464;28;20207;-65
2022/10/10 10:40:33;;;;;;;10.50;2.50;;;17.20;1.00;;;;;;5090213;28;20671;-58
2022/10/10 10:43:39;;;;;;;7.40;1.97;;;17.30;99.90;;;;;;5089176;28;20204;-58
2022/10/10 10:46:11;;;;;;;8.07;2.30;;;17.30;1.00;;;;;;5090372;28;20214;-59
2022/10/10 10:48:45;;;;;;;5.37;2.17;;;17.60;99.90;;;;;;5091747;28;20224;-59
2022/10/10 10:51:35;;;;;;;7.13;2.47;;;17.70;1.00;;;;;;5090721;28;20235;-60
2022/10/10 10:54:17;;;;;;;10.33;2.50;;;17.90;1.00;;;;;;5091091;28;20661;-60
2022/10/10 10:56:51;;;;;;;9.20;2.60;;;18.10;99.90;;;;;;5088477;28;20208;-64
2022/10/10 10:59:32;;;;;;;5.50;2.00;;;18.30;99.90;;;;;;5087701;28;20285;-65
2022/10/10 11:02:20;;;;;;;6.73;2.03;;;18.30;99.90;;;;;;5091290;28;20208;-65
2022/10/10 11:05:03;;;;;;;5.60;1.60;;;18.40;99.90;;;;;;5091006;28;20208;-66
2022/10/10 11:07:36;;;;;;;6.80;1.77;;;18.40;99.90;;;;;;5090882;28;20215;-62
2022/10/10 11:10:09;;;;;;;7.33;2.03;;;18.50;99.90;;;;;;5090884;28;20239;-62
2022/10/10 11:12:49;;;;;;;4.17;1.80;;;18.50;80.70;;;;;;5091115;28;20207;-63
2022/10/10 11:15:21;;;;;;;6.27;2.13;;;18.40;99.90;;;;;;5090381;28;20620;-62
2022/10/10 11:17:54;;;;;;;5.33;2.17;;;18.40;98.80;;;;;;5090008;28;20210;-62
2022/10/10 11:20:28;;;;;;;5.80;1.90;;;18.40;9.30;;;;;;5088949;28;20200;-64
2022/10/10 11:23:02;;;;;;;6.70;1.70;;;18.20;1.00;;;;;;5090415;28;20204;-63
2022/10/10 11:25:33;;;;;;;7.27;1.90;;;18.20;1.00;;;;;;5092911;28;20255;-63
2022/10/10 11:28:05;;;;;;;5.90;1.60;;;18.20;1.00;;;;;;5094918;28;20200;-64
2022/10/10 11:30:39;;;;;;;5.57;2.10;;;18.20;9.10;;;;;;5094422;28;20224;-62
2022/10/10 11:33:11;;;;;;;7.67;1.93;;;18.10;1.00;;;;;;5094624;28;20211;-64
2022/10/10 11:35:44;;;;;;;6.60;1.90;;;18.10;1.00;;;;;;5094448;28;20610;-64
2022/10/10 11:38:18;;;;;;;7.60;2.07;;;18.20;23.60;;;;;;5101552;28;20729;-67
2022/10/10 11:40:49;;;;;;;6.17;2.00;;;18.20;2.10;;;;;;5103041;28;20259;-64
2022/10/10 11:43:23;;;;;;;5.43;1.97;;;18.30;9.10;;;;;;5098202;28;20215;-61
2022/10/10 11:45:56;;;;;;;8.27;1.97;;;18.20;8.20;;;;;;5095579;28;20553;-61
2022/10/10 11:48:29;;;;;;;8.87;1.93;;;18.20;1.00;;;;;;5095290;28;20228;-61
2022/10/10 11:51:03;;;;;;;7.53;2.20;;;18.20;1.00;;;;;;5081126;28;20208;-61
2022/10/10 11:53:35;;;;;;;7.93;2.10;;;18.20;1.00;;;;;;5091183;28;20261;-61
2022/10/10 11:56:11;;;;;;;6.60;2.07;;;18.10;51.60;;;;;;5094034;28;20261;-62
2022/10/10 11:58:41;;;;;;;7.57;2.20;;;18.30;9.60;;;;;;5093851;28;20326;-62
2022/10/10 12:01:16;;;;;;;5.97;2.00;;;18.30;1.00;;;;;;5094213;28;20691;-61
2022/10/10 12:03:43;;;;;;;5.80;2.00;;;18.30;1.00;;;;;;5093744;28;20210;-62
2022/10/10 12:06:20;;;;;;;9.87;2.60;;;18.40;1.00;;;;;;5094421;28;20208;-62
2022/10/10 12:08:52;;;;;;;6.80;2.30;;;18.40;1.00;;;;;;5094185;28;20228;-63
2022/10/10 12:11:23;;;;;;;6.67;2.87;;;18.40;1.00;;;;;;5093691;28;20625;-65
2022/10/10 12:13:56;;;;;;;6.90;2.20;;;18.50;1.00;;;;;;5093603;28;20203;-64
2022/10/10 12:16:26;;;;;;;7.10;2.10;;;18.50;1.00;;;;;;5092985;28;20617;-65
2022/10/10 12:18:55;;;;;;;7.00;2.90;;;18.50;1.00;;;;;;5094873;28;20224;-61
2022/10/10 12:21:25;;;;;;;7.93;2.23;;;18.50;1.00;;;;;;5094972;28;20200;-63
2022/10/10 12:24:03;;;;;;;9.43;2.40;;;18.50;1.00;;;;;;5093527;28;20208;-63
2022/10/10 12:27:04;;;;;;;10.47;2.60;;;18.50;87.80;;;;;;5093135;28;20212;-64
2022/10/10 12:29:42;;;;;;;7.50;2.80;;;18.50;61.70;;;;;;5093306;28;20318;-62
2022/10/10 12:32:26;;;;;;;10.10;2.90;;;18.60;52.50;;;;;;5092882;28;20254;-62
2022/10/10 12:34:59;;;;;;;7.90;2.63;;;18.60;9.80;;;;;;5093487;28;20204;-62
2022/10/10 12:37:29;;;;;;;11.30;2.60;;;18.60;39.10;;;;;;5092751;28;20291;-62
2022/10/10 12:40:18;;;;;;;8.67;2.90;;;18.40;67.30;;;;;;5093092;28;20277;-64
2022/10/10 12:43:16;;;;;;;7.57;2.40;;;18.30;99.90;;;;;;5084264;28;20208;-63
2022/10/10 12:45:56;;;;;;;7.97;2.57;;;18.30;99.90;;;;;;5090820;28;20208;-63
2022/10/10 12:48:24;;;;;;;13.63;2.60;;;18.20;99.90;;;;;;5092755;28;20315;-63
2022/10/10 12:50:56;;;;;;;11.90;2.77;;;18.10;99.90;;;;;;5093324;28;20220;-64
2022/10/10 12:53:26;;;;;;;9.70;3.37;;;18.10;99.90;;;;;;5092177;28;20243;-65
2022/10/10 12:55:55;;;;;;;7.20;2.40;;;18.10;99.90;;;;;;5093520;28;20236;-64
2022/10/10 12:58:27;;;;;;;11.30;2.97;;;18.20;99.90;;;;;;5092946;28;20318;-64
2022/10/10 13:00:55;;;;;;;11.17;2.30;;;18.20;99.90;;;;;;5092542;28;20228;-65
2022/10/10 13:03:28;;;;;;;10.17;3.03;;;18.20;99.90;;;;;;5092542;28;20666;-66
2022/10/10 13:05:58;;;;;;;5.83;2.23;;;18.20;99.90;;;;;;5091812;28;20212;-65